createdAt,value
2019-03-09T00:01:24.969Z,57.86
2019-03-09T00:03:50.910Z,57.98
2019-03-09T00:06:17.086Z,58.33
2019-03-09T00:08:43.136Z,58.41
2019-03-09T00:11:09.169Z,58.60
2019-03-09T00:13:35.184Z,59.02
2019-03-09T00:16:01.115Z,59.11
2019-03-09T00:18:27.809Z,59.54
2019-03-09T00:20:53.731Z,59.86
2019-03-09T00:23:38.609Z,59.97
2019-03-09T00:26:09.085Z,60.52
2019-03-09T00:28:42.882Z,60.10
2019-03-09T00:31:13.636Z,60.35
2019-03-09T00:33:39.486Z,60.30
2019-03-09T00:36:05.540Z,60.31
2019-03-09T00:38:31.371Z,60.35
2019-03-09T00:40:57.257Z,60.16
2019-03-09T00:43:23.097Z,59.89
2019-03-09T00:45:49.138Z,60.20
2019-03-09T00:48:15.258Z,60.17
2019-03-09T00:50:41.196Z,60.25
2019-03-09T00:53:09.927Z,60.27
2019-03-09T00:55:36.040Z,60.30
2019-03-09T00:58:02.112Z,60.27
2019-03-09T01:00:28.168Z,60.76
2019-03-09T01:02:54.147Z,61.59
2019-03-09T01:05:20.302Z,61.38
2019-03-09T01:07:46.408Z,61.50
2019-03-09T01:10:14.027Z,61.63
2019-03-09T01:12:40.116Z,61.74
2019-03-09T01:15:07.175Z,61.81
2019-03-09T01:17:33.089Z,61.99
2019-03-09T01:19:59.092Z,61.67
2019-03-09T01:22:25.226Z,61.72
2019-03-09T01:24:51.440Z,62.35
2019-03-09T01:27:17.459Z,62.29
2019-03-09T01:29:43.414Z,62.22
2019-03-09T01:32:09.448Z,61.92
2019-03-09T01:34:35.513Z,62.52
2019-03-09T01:37:01.678Z,62.45
2019-03-09T01:39:27.596Z,63.08
2019-03-09T01:41:53.609Z,63.09
2019-03-09T01:44:19.449Z,62.65
2019-03-09T01:46:45.391Z,62.67
2019-03-09T01:49:11.696Z,62.76
2019-03-09T01:51:37.544Z,63.12
2019-03-09T01:54:07.464Z,63.29
2019-03-09T01:56:33.550Z,63.78
2019-03-09T01:58:59.384Z,63.58
2019-03-09T02:01:25.309Z,63.21
2019-03-09T02:03:51.421Z,63.45
2019-03-09T02:06:17.377Z,63.34
2019-03-09T02:08:43.368Z,63.29
2019-03-09T02:11:09.483Z,63.45
2019-03-09T02:13:35.453Z,63.99
2019-03-09T02:16:01.492Z,63.47
2019-03-09T02:18:27.679Z,63.98
2019-03-09T02:20:53.627Z,64.40
2019-03-09T02:23:19.574Z,64.24
2019-03-09T02:25:45.529Z,64.06
2019-03-09T02:28:11.569Z,64.71
2019-03-09T02:30:37.487Z,65.05
2019-03-09T02:33:03.436Z,65.06
2019-03-09T02:35:29.268Z,64.71
2019-03-09T02:37:57.082Z,65.13
2019-03-09T02:40:24.920Z,65.03
2019-03-09T02:42:50.864Z,65.30
2019-03-09T02:45:19.173Z,64.64
2019-03-09T02:47:45.102Z,64.40
2019-03-09T02:50:13.157Z,64.48
2019-03-09T02:52:39.347Z,64.59
2019-03-09T02:55:07.312Z,64.87
2019-03-09T02:57:33.291Z,64.85
2019-03-09T03:00:00.959Z,64.66
2019-03-09T03:02:34.933Z,64.96
2019-03-09T03:05:00.876Z,65.36
2019-03-09T03:07:26.889Z,65.93
2019-03-09T03:09:52.720Z,66.20
2019-03-09T03:12:18.650Z,65.55
2019-03-09T03:14:44.593Z,65.87
2019-03-09T03:17:10.432Z,66.10
2019-03-09T03:19:36.272Z,66.11
2019-03-09T03:22:02.323Z,65.79
2019-03-09T03:24:28.385Z,65.68
2019-03-09T03:26:54.336Z,65.34
2019-03-09T03:29:20.986Z,65.59
2019-03-09T03:31:46.915Z,65.75
2019-03-09T03:34:12.756Z,66.23
2019-03-09T03:36:38.757Z,66.11
2019-03-09T03:39:05.495Z,65.67
2019-03-09T03:41:31.741Z,65.92
2019-03-09T03:43:57.815Z,65.74
2019-03-09T03:46:23.763Z,66.10
2019-03-09T03:48:49.803Z,66.37
2019-03-09T03:51:15.781Z,66.52
2019-03-09T03:53:42.001Z,66.78
2019-03-09T03:56:08.058Z,66.79
2019-03-09T03:58:34.222Z,66.66
2019-03-09T04:01:00.279Z,66.50
2019-03-09T04:03:26.116Z,66.65
2019-03-09T04:05:52.237Z,67.31
2019-03-09T04:08:18.381Z,66.87
2019-03-09T04:10:44.503Z,66.88
2019-03-09T04:13:10.864Z,66.92
2019-03-09T04:15:36.904Z,67.15
2019-03-09T04:18:02.889Z,67.35
2019-03-09T04:20:28.837Z,66.80
2019-03-09T04:22:54.680Z,66.73
2019-03-09T04:25:20.814Z,67.00
2019-03-09T04:27:46.737Z,67.31
2019-03-09T04:30:12.777Z,67.43
2019-03-09T04:32:38.758Z,67.21
2019-03-09T04:35:05.810Z,67.29
2019-03-09T04:37:31.774Z,67.08
2019-03-09T04:39:57.774Z,66.77
2019-03-09T04:42:23.840Z,66.86
2019-03-09T04:44:49.985Z,67.08
2019-03-09T04:47:15.872Z,67.48
2019-03-09T04:49:41.701Z,67.41
2019-03-09T04:52:07.753Z,67.70
2019-03-09T04:54:33.613Z,67.93
2019-03-09T04:56:59.454Z,67.61
2019-03-09T04:59:25.529Z,67.34
2019-03-09T05:01:51.344Z,67.62
2019-03-09T05:04:27.371Z,67.55
2019-03-09T05:06:53.341Z,67.49
2019-03-09T05:09:44.294Z,67.61
2019-03-09T05:12:10.149Z,67.83
2019-03-09T05:14:36.118Z,68.09
2019-03-09T05:17:02.053Z,68.34
2019-03-09T05:19:27.908Z,67.82
2019-03-09T05:21:53.819Z,67.84
2019-03-09T05:24:19.652Z,68.22
2019-03-09T05:26:45.573Z,68.13
2019-03-09T05:29:11.497Z,67.94
2019-03-09T05:31:37.327Z,67.96
2019-03-09T05:34:03.273Z,68.09
2019-03-09T05:36:29.261Z,67.73
2019-03-09T05:38:55.139Z,68.05
2019-03-09T05:41:21.113Z,67.96
2019-03-09T05:43:46.971Z,68.27
2019-03-09T05:46:12.813Z,68.32
2019-03-09T05:48:38.697Z,68.20
2019-03-09T05:51:04.545Z,68.44
2019-03-09T05:53:30.416Z,68.26
2019-03-09T05:55:59.633Z,68.30
2019-03-09T05:58:25.733Z,68.04
2019-03-09T06:00:51.884Z,67.85
2019-03-09T06:03:17.811Z,67.65
2019-03-09T06:05:45.781Z,67.54
2019-03-09T06:08:11.663Z,67.49
2019-03-09T06:10:37.624Z,67.20
2019-03-09T06:13:03.858Z,67.17
2019-03-09T06:15:29.990Z,67.11
2019-03-09T06:17:55.786Z,67.27
2019-03-09T06:20:21.832Z,67.15
2019-03-09T06:22:47.816Z,66.98
2019-03-09T06:25:13.734Z,67.07
2019-03-09T06:27:39.667Z,67.03
2019-03-09T06:30:07.632Z,66.93
2019-03-09T06:32:37.305Z,67.04
2019-03-09T06:35:06.894Z,66.86
2019-03-09T06:37:32.735Z,67.02
2019-03-09T06:39:58.670Z,66.69
2019-03-09T06:42:28.290Z,66.25
2019-03-09T06:44:54.259Z,66.45
2019-03-09T06:47:20.093Z,66.05
2019-03-09T06:49:45.989Z,65.48
2019-03-09T06:52:12.034Z,64.77
2019-03-09T06:54:37.988Z,64.30
2019-03-09T06:57:13.249Z,64.07
2019-03-09T06:59:31.840Z,63.17
2019-03-09T07:01:57.826Z,62.60
2019-03-09T07:04:23.685Z,62.15
2019-03-09T07:06:49.509Z,62.02
2019-03-09T07:09:15.413Z,61.51
2019-03-09T07:11:41.258Z,61.25
2019-03-09T07:14:44.546Z,61.44
2019-03-09T07:17:10.393Z,61.71
2019-03-09T07:19:36.262Z,61.37
2019-03-09T07:22:02.255Z,61.31
2019-03-09T07:24:28.070Z,61.27
2019-03-09T07:26:53.906Z,61.05
2019-03-09T07:29:19.787Z,60.42
2019-03-09T07:31:45.649Z,59.54
2019-03-09T07:34:25.845Z,59.23
2019-03-09T07:36:51.686Z,58.55
2019-03-09T07:39:17.636Z,58.71
2019-03-09T07:41:43.546Z,58.11
2019-03-09T07:44:09.478Z,58.23
2019-03-09T07:46:35.398Z,58.66
2019-03-09T07:49:01.364Z,58.66
2019-03-09T07:51:27.197Z,58.38
2019-03-09T07:53:53.179Z,59.46
2019-03-09T07:56:19.274Z,59.34
2019-03-09T07:58:45.319Z,59.66
2019-03-09T08:01:11.182Z,60.05
2019-03-09T08:03:37.130Z,60.58
2019-03-09T08:06:03.068Z,60.82
2019-03-09T08:08:28.922Z,60.55
2019-03-09T08:10:54.789Z,59.92
2019-03-09T08:13:20.783Z,60.36
2019-03-09T08:15:46.757Z,58.99
2019-03-09T08:18:12.630Z,58.58
2019-03-09T08:20:38.498Z,58.13
2019-03-09T08:23:04.419Z,57.66
2019-03-09T08:25:30.495Z,57.24
2019-03-09T08:27:56.434Z,57.35
2019-03-09T08:30:24.204Z,56.53
2019-03-09T08:32:50.509Z,56.34
2019-03-09T08:35:17.540Z,55.35
2019-03-09T08:37:43.751Z,55.03
2019-03-09T08:40:12.231Z,54.87
2019-03-09T08:42:38.213Z,53.97
2019-03-09T08:45:06.988Z,52.98
2019-03-09T08:47:32.952Z,53.34
2019-03-09T08:49:58.884Z,52.50
2019-03-09T08:52:24.788Z,52.39
2019-03-09T08:54:50.669Z,53.01
2019-03-09T08:57:16.475Z,52.98
2019-03-09T08:59:42.349Z,52.75
2019-03-09T09:02:08.523Z,52.82
2019-03-09T09:04:34.788Z,54.04
2019-03-09T09:07:00.878Z,54.32
2019-03-09T09:09:26.955Z,54.50
2019-03-09T09:11:53.006Z,54.09
2019-03-09T09:14:18.869Z,53.68
2019-03-09T09:16:44.747Z,52.97
2019-03-09T09:19:10.600Z,52.61
2019-03-09T09:21:36.449Z,52.31
2019-03-09T09:24:02.716Z,52.15
2019-03-09T09:26:28.575Z,52.89
2019-03-09T09:28:54.396Z,52.29
2019-03-09T09:31:20.294Z,51.67
2019-03-09T09:33:46.119Z,52.58
2019-03-09T09:36:12.119Z,52.40
2019-03-09T09:38:38.037Z,52.36
2019-03-09T09:41:04.073Z,51.81
2019-03-09T09:43:29.915Z,51.83
2019-03-09T09:45:56.022Z,51.44
2019-03-09T09:48:21.838Z,51.56
2019-03-09T09:50:47.991Z,50.76
2019-03-09T09:53:13.982Z,50.54
2019-03-09T09:55:39.925Z,50.79
2019-03-09T09:58:06.033Z,50.94
2019-03-09T10:00:35.760Z,50.94
2019-03-09T10:03:01.591Z,50.63
2019-03-09T10:05:27.602Z,50.62
2019-03-09T10:07:53.473Z,49.30
2019-03-09T10:10:20.508Z,49.01
2019-03-09T10:12:46.695Z,49.62
2019-03-09T10:15:26.961Z,50.50
2019-03-09T10:17:53.095Z,48.81
2019-03-09T10:20:19.235Z,49.96
2019-03-09T10:22:45.052Z,50.01
2019-03-09T10:25:11.164Z,50.36
2019-03-09T10:27:37.102Z,48.77
2019-03-09T10:30:09.761Z,48.41
2019-03-09T10:32:35.773Z,47.72
2019-03-09T10:35:01.833Z,47.53
2019-03-09T10:37:27.770Z,47.06
2019-03-09T10:39:53.757Z,46.93
2019-03-09T10:42:19.573Z,47.15
2019-03-09T10:44:45.610Z,47.35
2019-03-09T10:47:11.597Z,47.03
2019-03-09T10:49:37.535Z,47.49
2019-03-09T10:52:03.369Z,47.06
2019-03-09T10:54:35.946Z,47.81
2019-03-09T10:56:57.128Z,48.00
2019-03-09T10:59:23.085Z,48.01
2019-03-09T11:01:49.099Z,47.87
2019-03-09T11:04:15.197Z,48.42
2019-03-09T11:06:41.182Z,48.73
2019-03-09T11:09:07.037Z,48.12
2019-03-09T11:11:32.876Z,47.76
2019-03-09T11:13:58.776Z,48.04
2019-03-09T11:16:24.629Z,47.65
2019-03-09T11:18:50.467Z,49.29
2019-03-09T11:21:16.690Z,47.92
2019-03-09T11:23:42.593Z,48.71
2019-03-09T11:26:08.559Z,48.93
2019-03-09T11:28:34.942Z,48.43
2019-03-09T11:31:00.785Z,48.42
2019-03-09T11:33:26.693Z,48.26
2019-03-09T11:35:52.649Z,48.87
2019-03-09T11:38:18.722Z,48.28
2019-03-09T11:40:44.641Z,47.16
2019-03-09T11:43:10.600Z,47.75
2019-03-09T11:45:36.774Z,46.62
2019-03-09T11:48:02.894Z,44.20
2019-03-09T11:50:28.720Z,45.03
2019-03-09T11:52:54.774Z,45.31
2019-03-09T11:55:20.802Z,45.70
2019-03-09T11:57:46.824Z,44.91
2019-03-09T12:00:22.383Z,45.44
2019-03-09T12:02:48.530Z,45.89
2019-03-09T12:05:14.369Z,45.32
2019-03-09T12:07:40.199Z,44.67
2019-03-09T12:10:10.467Z,44.83
2019-03-09T12:12:36.523Z,44.43
2019-03-09T12:15:04.960Z,45.09
2019-03-09T12:17:30.927Z,45.88
2019-03-09T12:19:56.879Z,45.27
2019-03-09T12:22:22.705Z,45.16
2019-03-09T12:24:50.752Z,45.49
2019-03-09T12:27:16.603Z,44.18
2019-03-09T12:29:42.477Z,42.96
2019-03-09T12:32:08.301Z,40.87
2019-03-09T12:34:34.238Z,43.07
2019-03-09T12:37:00.155Z,43.76
2019-03-09T12:39:26.074Z,41.18
2019-03-09T12:41:52.567Z,34.47
2019-03-09T12:44:18.720Z,31.71
2019-03-09T12:46:44.653Z,28.39
2019-03-09T12:49:10.626Z,29.65
2019-03-09T12:51:36.735Z,28.73
2019-03-09T12:54:02.673Z,31.24
2019-03-09T12:56:28.528Z,32.30
2019-03-09T12:58:54.449Z,31.81
2019-03-09T13:01:22.046Z,29.63
2019-03-09T13:03:48.114Z,30.39
2019-03-09T13:06:14.293Z,26.11
2019-03-09T13:08:40.204Z,29.20
2019-03-09T13:11:06.236Z,27.28
2019-03-09T13:13:32.931Z,21.88
2019-03-09T13:15:58.930Z,25.78
2019-03-09T13:18:24.791Z,25.59
2019-03-09T13:20:50.626Z,25.96
2019-03-09T13:23:16.596Z,28.17
2019-03-09T13:25:42.561Z,24.29
2019-03-09T13:28:08.632Z,23.81
2019-03-09T13:30:34.560Z,26.11
2019-03-09T13:33:00.771Z,25.43
2019-03-09T13:35:26.682Z,22.54
2019-03-09T13:37:52.645Z,25.17
2019-03-09T13:40:18.813Z,24.28
2019-03-09T13:42:44.873Z,26.50
2019-03-09T13:45:12.822Z,26.85
2019-03-09T13:47:38.933Z,27.89
2019-03-09T13:50:07.897Z,27.88
2019-03-09T13:52:33.723Z,29.28
2019-03-09T13:54:59.737Z,28.45
2019-03-09T13:57:25.557Z,28.13
2019-03-09T13:59:51.450Z,29.78
2019-03-09T14:02:17.272Z,30.47
2019-03-09T14:04:43.354Z,32.74
2019-03-09T14:07:09.309Z,30.51
2019-03-09T14:09:35.154Z,36.63
2019-03-09T14:12:00.999Z,34.11
2019-03-09T14:14:26.986Z,35.63
2019-03-09T14:16:52.961Z,34.44
2019-03-09T14:19:18.946Z,35.07
2019-03-09T14:21:44.798Z,35.79
2019-03-09T14:24:10.650Z,35.75
2019-03-09T14:26:36.469Z,32.24
2019-03-09T14:29:02.506Z,28.86
2019-03-09T14:31:28.581Z,28.03
2019-03-09T14:33:54.429Z,31.03
2019-03-09T14:36:20.339Z,29.11
2019-03-09T14:38:46.228Z,32.57
2019-03-09T14:41:12.068Z,27.70
2019-03-09T14:43:37.904Z,30.87
2019-03-09T14:46:03.973Z,28.58
2019-03-09T14:48:29.821Z,26.35
2019-03-09T14:50:55.653Z,27.62
2019-03-09T14:53:21.630Z,30.86
2019-03-09T14:55:47.496Z,31.46
2019-03-09T14:58:13.339Z,30.07
2019-03-09T15:00:39.376Z,30.55
2019-03-09T15:03:05.234Z,28.37
2019-03-09T15:05:31.049Z,26.00
2019-03-09T15:07:57.356Z,23.91
2019-03-09T15:10:23.294Z,32.71
2019-03-09T15:12:49.335Z,29.93
2019-03-09T15:15:16.513Z,29.91
2019-03-09T15:17:42.342Z,31.32
2019-03-09T15:20:10.307Z,33.97
2019-03-09T15:22:36.219Z,35.77
2019-03-09T15:25:03.483Z,36.10
2019-03-09T15:27:29.427Z,35.41
2019-03-09T15:29:55.326Z,36.95
2019-03-09T15:32:21.159Z,37.62
2019-03-09T15:34:47.233Z,36.33
2019-03-09T15:37:13.242Z,32.93
2019-03-09T15:39:39.192Z,28.12
2019-03-09T15:42:05.168Z,28.59
2019-03-09T15:44:31.055Z,30.86
2019-03-09T15:46:57.100Z,29.39
2019-03-09T15:49:23.061Z,24.27
2019-03-09T15:51:49.841Z,25.96
2019-03-09T15:54:16.015Z,30.52
2019-03-09T15:56:42.055Z,32.22
2019-03-09T15:59:07.901Z,36.26
2019-03-09T16:01:33.828Z,36.51
2019-03-09T16:03:59.679Z,37.27
2019-03-09T16:06:25.626Z,38.45
2019-03-09T16:08:51.578Z,38.18
2019-03-09T16:11:17.520Z,38.99
2019-03-09T16:13:43.421Z,38.91
2019-03-09T16:16:09.260Z,40.00
2019-03-09T16:18:35.109Z,40.05
2019-03-09T16:21:05.147Z,39.99
2019-03-09T16:23:30.997Z,40.18
2019-03-09T16:25:56.836Z,40.41
2019-03-09T16:28:22.801Z,40.21
2019-03-09T16:30:48.659Z,40.16
2019-03-09T16:33:14.720Z,39.82
2019-03-09T16:35:40.846Z,39.54
2019-03-09T16:38:06.810Z,34.03
2019-03-09T16:40:40.006Z,35.23
2019-03-09T16:43:00.595Z,38.34
2019-03-09T16:45:26.548Z,38.85
2019-03-09T16:47:52.596Z,39.37
2019-03-09T16:50:18.633Z,39.73
2019-03-09T16:52:44.827Z,39.23
2019-03-09T16:55:11.049Z,38.91
2019-03-09T16:57:37.020Z,38.75
2019-03-09T17:00:17.846Z,38.53
2019-03-09T17:02:43.988Z,38.33
2019-03-09T17:05:10.078Z,38.80
2019-03-09T17:07:36.045Z,39.18
2019-03-09T17:10:02.098Z,39.24
2019-03-09T17:12:28.088Z,39.40
2019-03-09T17:14:54.104Z,39.58
2019-03-09T17:17:19.989Z,39.96
2019-03-09T17:19:46.071Z,40.07
2019-03-09T17:22:11.951Z,40.08
2019-03-09T17:24:37.892Z,40.61
2019-03-09T17:27:04.035Z,40.76
2019-03-09T17:29:29.860Z,41.65
2019-03-09T17:31:55.693Z,41.38
2019-03-09T17:34:21.619Z,41.98
2019-03-09T17:36:47.457Z,42.38
2019-03-09T17:39:13.284Z,42.08
2019-03-09T17:41:39.231Z,42.51
2019-03-09T17:44:05.087Z,42.81
2019-03-09T17:46:31.016Z,42.84
2019-03-09T17:48:57.017Z,43.44
2019-03-09T17:51:22.962Z,43.11
2019-03-09T17:53:48.808Z,43.51
2019-03-09T17:56:14.697Z,44.00
2019-03-09T17:58:40.641Z,44.54
2019-03-09T18:01:06.678Z,45.07
2019-03-09T18:03:32.602Z,45.58
2019-03-09T18:05:58.533Z,45.83
2019-03-09T18:08:24.380Z,46.13
2019-03-09T18:10:53.779Z,45.99
2019-03-09T18:13:20.198Z,45.56
2019-03-09T18:15:46.155Z,45.85
2019-03-09T18:18:12.132Z,45.56
2019-03-09T18:20:37.980Z,45.71
2019-03-09T18:23:04.105Z,46.08
2019-03-09T18:25:30.034Z,45.96
2019-03-09T18:27:55.889Z,46.50
2019-03-09T18:30:21.877Z,47.42
2019-03-09T18:32:47.811Z,46.40
2019-03-09T18:35:13.868Z,46.49
2019-03-09T18:37:39.944Z,46.26
2019-03-09T18:40:14.271Z,45.49
2019-03-09T18:42:40.219Z,44.74
2019-03-09T18:45:12.109Z,45.77
2019-03-09T18:47:37.944Z,46.59
2019-03-09T18:50:05.291Z,46.92
2019-03-09T18:52:31.253Z,47.60
2019-03-09T18:54:57.089Z,47.54
2019-03-09T18:57:23.256Z,47.76
2019-03-09T18:59:49.088Z,48.61
2019-03-09T19:02:16.218Z,48.69
2019-03-09T19:04:42.123Z,48.79
2019-03-09T19:07:07.951Z,48.46
2019-03-09T19:09:33.794Z,48.50
2019-03-09T19:11:59.925Z,48.70
2019-03-09T19:14:25.863Z,46.27
2019-03-09T19:16:51.675Z,48.18
2019-03-09T19:19:17.554Z,48.28
2019-03-09T19:21:43.387Z,48.35
2019-03-09T19:24:09.622Z,48.60
2019-03-09T19:26:38.809Z,48.95
2019-03-09T19:29:05.315Z,49.34
2019-03-09T19:31:31.801Z,47.87
2019-03-09T19:33:57.807Z,49.27
2019-03-09T19:36:23.639Z,50.16
2019-03-09T19:38:49.519Z,50.34
2019-03-09T19:41:15.356Z,50.48
2019-03-09T19:43:41.252Z,50.34
2019-03-09T19:46:07.114Z,50.53
2019-03-09T19:48:33.937Z,50.24
2019-03-09T19:50:59.997Z,50.08
2019-03-09T19:53:25.949Z,50.69
2019-03-09T19:55:51.962Z,50.92
2019-03-09T19:58:18.079Z,51.29
2019-03-09T20:00:43.933Z,51.93
2019-03-09T20:03:09.766Z,51.38
2019-03-09T20:05:37.787Z,51.08
2019-03-09T20:08:03.844Z,51.74
2019-03-09T20:10:29.853Z,49.70
2019-03-09T20:12:55.848Z,51.33
2019-03-09T20:15:22.124Z,51.12
2019-03-09T20:17:48.707Z,50.99
2019-03-09T20:20:16.328Z,50.88
2019-03-09T20:22:42.390Z,50.72
2019-03-09T20:25:09.174Z,51.07
2019-03-09T20:27:35.450Z,51.01
2019-03-09T20:30:02.541Z,51.12
2019-03-09T20:32:30.950Z,50.61
2019-03-09T20:34:57.668Z,48.52
2019-03-09T20:37:24.742Z,47.83
2019-03-09T20:39:53.388Z,47.67
2019-03-09T20:42:22.113Z,47.50
2019-03-09T20:44:49.408Z,47.72
2019-03-09T20:47:16.885Z,48.10
2019-03-09T20:49:45.682Z,48.15
2019-03-09T20:52:15.355Z,48.52
2019-03-09T20:54:42.345Z,48.77
2019-03-09T20:57:09.455Z,49.03
2019-03-09T20:59:36.533Z,49.47
2019-03-09T21:02:03.833Z,49.78
2019-03-09T21:04:30.909Z,50.18
2019-03-09T21:06:59.558Z,50.16
2019-03-09T21:09:26.720Z,49.80
2019-03-09T21:11:53.580Z,50.04
2019-03-09T21:14:20.452Z,49.69
2019-03-09T21:16:47.457Z,49.71
2019-03-09T21:19:14.251Z,49.39
2019-03-09T21:21:40.780Z,49.68
2019-03-09T21:24:07.070Z,49.95
2019-03-09T21:26:33.062Z,50.44
2019-03-09T21:28:59.163Z,50.70
2019-03-09T21:31:25.167Z,51.06
2019-03-09T21:33:51.126Z,51.21
2019-03-09T21:36:16.979Z,51.50
2019-03-09T21:38:42.943Z,51.75
2019-03-09T21:41:08.917Z,52.39
2019-03-09T21:43:34.815Z,51.76
2019-03-09T21:46:01.200Z,52.54
2019-03-09T21:48:27.032Z,52.55
2019-03-09T21:50:53.014Z,52.12
2019-03-09T21:53:19.013Z,52.98
2019-03-09T21:55:44.864Z,53.29
2019-03-09T21:58:10.934Z,53.13
2019-03-09T22:00:37.864Z,53.44
2019-03-09T22:03:03.712Z,53.52
2019-03-09T22:05:29.593Z,54.00
2019-03-09T22:07:56.577Z,54.15
2019-03-09T22:10:22.598Z,54.42
2019-03-09T22:12:48.506Z,53.58
2019-03-09T22:15:15.382Z,54.34
2019-03-09T22:17:41.654Z,54.16
2019-03-09T22:20:11.291Z,54.21
2019-03-09T22:22:37.485Z,54.46
2019-03-09T22:25:06.731Z,55.51
2019-03-09T22:27:32.570Z,55.20
2019-03-09T22:29:58.457Z,54.64
2019-03-09T22:32:24.310Z,54.87
2019-03-09T22:34:50.294Z,55.24
2019-03-09T22:37:16.241Z,54.64
2019-03-09T22:39:42.216Z,54.71
2019-03-09T22:42:08.173Z,55.00
2019-03-09T22:44:33.991Z,54.60
2019-03-09T22:47:10.826Z,54.53
2019-03-09T22:49:27.955Z,54.90
2019-03-09T22:51:53.801Z,54.90
2019-03-09T22:54:19.730Z,55.15
2019-03-09T22:56:45.624Z,55.32
2019-03-09T22:59:11.501Z,55.52
2019-03-09T23:01:41.039Z,55.82
2019-03-09T23:04:06.997Z,55.92
2019-03-09T23:06:33.058Z,56.46
2019-03-09T23:08:59.133Z,56.77
2019-03-09T23:11:25.058Z,57.27
2019-03-09T23:13:51.055Z,57.24
2019-03-09T23:16:16.926Z,57.71
2019-03-09T23:18:42.784Z,57.66
2019-03-09T23:21:08.708Z,58.00
2019-03-09T23:23:36.518Z,58.02
2019-03-09T23:26:02.448Z,57.74
2019-03-09T23:28:43.255Z,58.22
2019-03-09T23:31:09.183Z,58.07
2019-03-09T23:33:35.050Z,58.87
2019-03-09T23:36:01.005Z,58.79
2019-03-09T23:38:26.871Z,58.73
2019-03-09T23:40:52.934Z,58.84
2019-03-09T23:43:18.776Z,58.87
2019-03-09T23:45:44.808Z,59.45
2019-03-09T23:48:10.936Z,59.29
2019-03-09T23:50:36.979Z,59.79
2019-03-09T23:53:03.026Z,60.07
2019-03-09T23:55:28.999Z,60.49
2019-03-09T23:57:55.053Z,60.34
